Lake Hart, FL

7:25 PM EDT on May 27, 2017 (GMT -0400)
| | Change Station
Active Advisory: Fire Weather Warning

Elev -9999 ft 0.00 °N, 0.00 °E | Updated 0 second ago

Clear
Clear
°F
Feels Like °F
N
Wind Variable Wind from North
Gusts mph

Today
High -- | Low -- °F
--% Chance of Precip.
Yesterday
High -- | Low -- °F
Precip. -- in
Pressure 30.00 in
Visibility 10.0 miles
Clouds Few 25000 ft
Dew Point Not available.
Humidity Not available.
Rainfall --
Snow Depth Not available.
6:29 AM 8:15 PM
Waxing Crescent, 7% visible
METAR KMCO 272253Z 30007KT 10SM FEW250 33/09 A3000 RMK AO2 SLP158 T03280094 $
Pressure 30.00 in
Visibility 10.0 miles
Clouds Few 25000 ft
Dew Point Not available.
Humidity Not available.
Rainfall --
Snow Depth Not available.
6:29 AM 8:15 PM
Waxing Crescent, 7% visible
METAR KMCO 272253Z 30007KT 10SM FEW250 33/09 A3000 RMK AO2 SLP158 T03280094 $

Get Your Daily Forecast Email!

Thanks for signing up!

Be on the lookout for a verification email in your inbox.

You'll start receiving severe weather alerts in your inbox..

×

10-Day Weather Forecast

Almanac

Astronomy

May. 27, 2017 Rise Set
Actual Time
Civil Twilight
Nautical Twilight
Astronomical Twilight
Moon
Length of Visible Light
Length of Day
Tomorrow will be .
, % of the Moon is Illuminated

Today's Extremes

State Highs State Lows

Community

WunderPhotos

Category 6

Welcome to Category 6. This is the collective home for Weather Underground's featured writeups by Dr. Jeff Masters (right), Bob Henson (left), Chris Burt, and other regular contributors.

Nearby

Air Quality

  Air Quality AQ Index Pollutant
Not available.

Snow Depth

Station Depth Elevation

Earthquake Activity

City Distance Mag. Time & Date
Minimum magnitude displayed is 2.5.

Coastal Water Temperatures

Place Temperature

Stations

Nearby Weather Stations

Station Location Temp. Windchill Dew Point Humidity Wind Precip. Elev Updated Type
                   

Watches & Warnings

Fire Weather Warning
Issued: 4:23 AM EDT May. 27, 2017 – National Weather Service

... Red flag warning in effect from noon today to 8 PM EDT this
evening for long duration of low rh for Orange and semimole
counties...

The National Weather Service in Melbourne has issued a red flag
warning, which is in effect from noon today to 8 PM EDT this
evening. The Fire Weather Watch is no longer in effect.

* Affected area... Orange... Seminole.

* Wind... west to northwest wind 5 to 10 mph.

* Humidity... min humidity between 25 and 30 percent.

* Impacts... any fires that develop will likely spread rapidly.
Outdoor burning is not recommended.


Precautionary/preparedness actions...

A red flag warning means that critical fire weather conditions
are either occurring now... .or will shortly. A combination of
strong winds... low relative humidity... and warm temperatures can
contribute to extreme fire behavior.